AIRPORT ID: 8G2

DATE: 2024-05-27 ZULU TIME: 20.55 LOCAL TIME: 16.55


METAR K8G2 272055Z AUTO 28012G17KT 10SM 22/16 A2970

ALTIMETER: A2970 Q1006

DENSITY ALT: 3100 Ft

WIND DIRECT: 270

WIND SPEED: 12 Gust

WIND CONDITIONS:

VISIBILTY: 10SM 9999M

TEMPERATURE: 72 F 22 C

DEW POINT: 60 F 16 C

HUMID: 66%

LCL: 3,000-5,000 feet

RADIO CHECK: 0

ADVISARIES: 0

GREETINGS: 0

CONVERSATIONS: 0